Hlavní strana
METAR-TAF:

METAR-TAF

Letiště :

Førde, Norsko

zeměpisná šířka: 61-27N, zeměpisná délka: 005-52E, výška: 150 m

Aktuální stav počasí

Zpráva byla vytvořena před 8 hodinami a 53 minutami, v 22:20 UTC
Severovýchodní vítr 4 kt
Teplota -4°C
Vlhkost vzduchu 93%
Tlak 997 hPa
Viditelnost 10 km a více
Skoro jasno ve výšce 2500 ft

METAR: ENBL 282220Z 04004KT 9999 FEW025 M04/M05 Q0997

Čas: 08:13 (07:13 UTC)


TAF: chybějící

Stav a předpovědi počasí z více než 4 000 letišť (zprávy METAR a TAF).

Červené a žluté tečky na mapě představují dostupné meteorologické stanice.

Když kurzor umístíte na tečku, zobrazí se název stanice.

Pak kliknutím zobrazíte stav a předpověď počasí.

Chcete-li změnit mapu, kliknutím na zelené tlačítko se znaménkem +mapu přiblížíte, kliknutím na zelené tlačítko se znaménkem – mapu oddálíte a kliknutím na zelené šipky přejdete na sousední mapy.


METAR-TAF: